sensor_id;sensor_type;location;lat;lon;timestamp;P1;durP1;ratioP1;P2;durP2;ratioP2
74465;SDS011;62916;50.044;15.938;2022-12-07T00:02:28;3.90;;;3.50;;
74465;SDS011;62916;50.044;15.938;2022-12-07T00:04:59;4.40;;;4.00;;
74465;SDS011;62916;50.044;15.938;2022-12-07T00:07:30;4.60;;;4.20;;
74465;SDS011;62916;50.044;15.938;2022-12-07T00:10:01;3.80;;;3.50;;
74465;SDS011;62916;50.044;15.938;2022-12-07T00:12:32;3.70;;;3.40;;
74465;SDS011;62916;50.044;15.938;2022-12-07T00:15:03;3.60;;;3.20;;
74465;SDS011;62916;50.044;15.938;2022-12-07T00:17:35;3.20;;;2.90;;
74465;SDS011;62916;50.044;15.938;2022-12-07T00:20:06;4.60;;;4.20;;
74465;SDS011;62916;50.044;15.938;2022-12-07T00:22:38;4.20;;;3.60;;
74465;SDS011;62916;50.044;15.938;2022-12-07T00:25:08;4.30;;;3.90;;
74465;SDS011;62916;50.044;15.938;2022-12-07T00:27:39;4.20;;;3.60;;
74465;SDS011;62916;50.044;15.938;2022-12-07T00:30:10;3.70;;;3.40;;
74465;SDS011;62916;50.044;15.938;2022-12-07T00:32:41;4.20;;;3.80;;
74465;SDS011;62916;50.044;15.938;2022-12-07T00:35:12;5.00;;;4.60;;
74465;SDS011;62916;50.044;15.938;2022-12-07T00:37:43;3.50;;;3.10;;
74465;SDS011;62916;50.044;15.938;2022-12-07T00:40:14;4.10;;;3.70;;
74465;SDS011;62916;50.044;15.938;2022-12-07T00:42:45;3.50;;;3.20;;
74465;SDS011;62916;50.044;15.938;2022-12-07T00:45:15;3.40;;;3.10;;
74465;SDS011;62916;50.044;15.938;2022-12-07T00:47:46;3.50;;;3.20;;
74465;SDS011;62916;50.044;15.938;2022-12-07T00:50:16;3.30;;;3.00;;
74465;SDS011;62916;50.044;15.938;2022-12-07T00:52:47;3.90;;;3.50;;
74465;SDS011;62916;50.044;15.938;2022-12-07T00:55:18;3.90;;;3.50;;
74465;SDS011;62916;50.044;15.938;2022-12-07T00:57:48;3.80;;;3.30;;
74465;SDS011;62916;50.044;15.938;2022-12-07T01:00:19;3.40;;;3.10;;
74465;SDS011;62916;50.044;15.938;2022-12-07T01:02:50;3.90;;;3.50;;
74465;SDS011;62916;50.044;15.938;2022-12-07T01:05:21;3.80;;;3.30;;
74465;SDS011;62916;50.044;15.938;2022-12-07T01:07:51;3.40;;;2.70;;
74465;SDS011;62916;50.044;15.938;2022-12-07T01:10:22;3.50;;;3.20;;
74465;SDS011;62916;50.044;15.938;2022-12-07T01:12:53;3.20;;;2.90;;
74465;SDS011;62916;50.044;15.938;2022-12-07T01:15:24;3.20;;;2.90;;
74465;SDS011;62916;50.044;15.938;2022-12-07T01:17:54;3.30;;;3.00;;
74465;SDS011;62916;50.044;15.938;2022-12-07T01:20:25;3.20;;;2.90;;
74465;SDS011;62916;50.044;15.938;2022-12-07T01:22:56;3.20;;;2.90;;
74465;SDS011;62916;50.044;15.938;2022-12-07T01:25:26;3.30;;;3.10;;
74465;SDS011;62916;50.044;15.938;2022-12-07T01:27:57;3.50;;;2.90;;
74465;SDS011;62916;50.044;15.938;2022-12-07T01:30:28;3.70;;;2.80;;
74465;SDS011;62916;50.044;15.938;2022-12-07T01:32:59;3.40;;;3.10;;
74465;SDS011;62916;50.044;15.938;2022-12-07T01:35:30;3.30;;;3.00;;
74465;SDS011;62916;50.044;15.938;2022-12-07T01:38:03;3.20;;;2.90;;
74465;SDS011;62916;50.044;15.938;2022-12-07T01:40:34;3.50;;;3.00;;
74465;SDS011;62916;50.044;15.938;2022-12-07T01:43:07;3.20;;;2.90;;
74465;SDS011;62916;50.044;15.938;2022-12-07T01:45:43;3.10;;;2.90;;
74465;SDS011;62916;50.044;15.938;2022-12-07T01:48:14;3.70;;;3.00;;
74465;SDS011;62916;50.044;15.938;2022-12-07T01:50:49;3.10;;;2.80;;
74465;SDS011;62916;50.044;15.938;2022-12-07T01:53:22;3.50;;;3.00;;
74465;SDS011;62916;50.044;15.938;2022-12-07T01:55:57;3.40;;;3.10;;
74465;SDS011;62916;50.044;15.938;2022-12-07T01:58:29;3.20;;;2.80;;
74465;SDS011;62916;50.044;15.938;2022-12-07T02:01:00;2.90;;;2.60;;
74465;SDS011;62916;50.044;15.938;2022-12-07T02:03:31;2.80;;;2.50;;
74465;SDS011;62916;50.044;15.938;2022-12-07T02:06:07;4.50;;;2.50;;
74465;SDS011;62916;50.044;15.938;2022-12-07T02:08:40;2.90;;;2.50;;
74465;SDS011;62916;50.044;15.938;2022-12-07T02:11:12;2.80;;;2.60;;
74465;SDS011;62916;50.044;15.938;2022-12-07T02:13:43;2.70;;;2.40;;
74465;SDS011;62916;50.044;15.938;2022-12-07T02:16:18;2.70;;;2.40;;
74465;SDS011;62916;50.044;15.938;2022-12-07T02:21:58;2.60;;;2.40;;
74465;SDS011;62916;50.044;15.938;2022-12-07T02:24:41;3.10;;;2.80;;
74465;SDS011;62916;50.044;15.938;2022-12-07T02:27:27;3.00;;;2.60;;
74465;SDS011;62916;50.044;15.938;2022-12-07T02:30:06;3.00;;;2.70;;
74465;SDS011;62916;50.044;15.938;2022-12-07T02:32:42;2.70;;;2.50;;
74465;SDS011;62916;50.044;15.938;2022-12-07T02:35:19;2.80;;;2.60;;
74465;SDS011;62916;50.044;15.938;2022-12-07T02:37:55;3.00;;;2.30;;
74465;SDS011;62916;50.044;15.938;2022-12-07T02:40:33;2.70;;;2.50;;
74465;SDS011;62916;50.044;15.938;2022-12-07T02:43:08;2.40;;;2.20;;
74465;SDS011;62916;50.044;15.938;2022-12-07T02:45:43;2.30;;;2.10;;
74465;SDS011;62916;50.044;15.938;2022-12-07T02:48:16;2.50;;;2.30;;
74465;SDS011;62916;50.044;15.938;2022-12-07T02:50:49;2.50;;;2.30;;
74465;SDS011;62916;50.044;15.938;2022-12-07T02:53:34;2.60;;;2.40;;
74465;SDS011;62916;50.044;15.938;2022-12-07T02:56:08;2.40;;;2.20;;
74465;SDS011;62916;50.044;15.938;2022-12-07T02:58:49;2.80;;;2.50;;
74465;SDS011;62916;50.044;15.938;2022-12-07T03:01:29;2.60;;;2.40;;
74465;SDS011;62916;50.044;15.938;2022-12-07T03:04:10;2.30;;;2.10;;
74465;SDS011;62916;50.044;15.938;2022-12-07T03:06:51;2.70;;;2.50;;
74465;SDS011;62916;50.044;15.938;2022-12-07T03:09:28;2.40;;;2.20;;
74465;SDS011;62916;50.044;15.938;2022-12-07T03:12:07;2.40;;;2.20;;
74465;SDS011;62916;50.044;15.938;2022-12-07T03:14:45;2.20;;;1.90;;
74465;SDS011;62916;50.044;15.938;2022-12-07T03:17:22;2.70;;;2.50;;
74465;SDS011;62916;50.044;15.938;2022-12-07T03:19:58;2.20;;;2.00;;
74465;SDS011;62916;50.044;15.938;2022-12-07T03:22:31;2.10;;;1.90;;
74465;SDS011;62916;50.044;15.938;2022-12-07T03:25:08;2.50;;;2.30;;
74465;SDS011;62916;50.044;15.938;2022-12-07T03:27:44;2.90;;;2.60;;
74465;SDS011;62916;50.044;15.938;2022-12-07T03:30:20;2.30;;;2.10;;
74465;SDS011;62916;50.044;15.938;2022-12-07T03:32:53;3.10;;;2.90;;
74465;SDS011;62916;50.044;15.938;2022-12-07T03:35:30;2.20;;;2.00;;
74465;SDS011;62916;50.044;15.938;2022-12-07T03:38:05;1.80;;;1.70;;
74465;SDS011;62916;50.044;15.938;2022-12-07T03:40:45;2.10;;;2.00;;
74465;SDS011;62916;50.044;15.938;2022-12-07T03:43:21;2.00;;;1.80;;
74465;SDS011;62916;50.044;15.938;2022-12-07T03:45:53;2.30;;;2.10;;
74465;SDS011;62916;50.044;15.938;2022-12-07T03:48:35;2.60;;;2.40;;
74465;SDS011;62916;50.044;15.938;2022-12-07T03:51:11;2.20;;;2.00;;
74465;SDS011;62916;50.044;15.938;2022-12-07T03:56:21;2.00;;;1.70;;
74465;SDS011;62916;50.044;15.938;2022-12-07T03:58:54;2.10;;;1.90;;
74465;SDS011;62916;50.044;15.938;2022-12-07T04:01:25;2.10;;;1.90;;
74465;SDS011;62916;50.044;15.938;2022-12-07T04:03:56;2.10;;;1.90;;
74465;SDS011;62916;50.044;15.938;2022-12-07T04:06:27;2.80;;;2.60;;
74465;SDS011;62916;50.044;15.938;2022-12-07T04:08:57;2.10;;;1.90;;
74465;SDS011;62916;50.044;15.938;2022-12-07T04:11:28;2.00;;;1.80;;
74465;SDS011;62916;50.044;15.938;2022-12-07T04:13:59;2.10;;;1.90;;
74465;SDS011;62916;50.044;15.938;2022-12-07T04:16:48;2.20;;;1.90;;
74465;SDS011;62916;50.044;15.938;2022-12-07T04:19:21;2.20;;;1.90;;
74465;SDS011;62916;50.044;15.938;2022-12-07T04:21:54;2.10;;;2.00;;
74465;SDS011;62916;50.044;15.938;2022-12-07T04:24:26;1.90;;;1.80;;
74465;SDS011;62916;50.044;15.938;2022-12-07T04:26:57;2.20;;;2.00;;
74465;SDS011;62916;50.044;15.938;2022-12-07T04:29:28;1.90;;;1.70;;
74465;SDS011;62916;50.044;15.938;2022-12-07T04:31:58;2.30;;;2.10;;
74465;SDS011;62916;50.044;15.938;2022-12-07T04:34:29;2.10;;;1.90;;
74465;SDS011;62916;50.044;15.938;2022-12-07T04:37:00;3.20;;;2.30;;
74465;SDS011;62916;50.044;15.938;2022-12-07T04:39:31;2.90;;;2.50;;
74465;SDS011;62916;50.044;15.938;2022-12-07T04:42:02;2.40;;;2.20;;
74465;SDS011;62916;50.044;15.938;2022-12-07T04:44:33;2.40;;;1.90;;
74465;SDS011;62916;50.044;15.938;2022-12-07T04:47:04;2.40;;;2.10;;
74465;SDS011;62916;50.044;15.938;2022-12-07T04:49:35;5.20;;;2.00;;
74465;SDS011;62916;50.044;15.938;2022-12-07T04:52:06;3.50;;;2.20;;
74465;SDS011;62916;50.044;15.938;2022-12-07T04:54:37;3.60;;;2.20;;
74465;SDS011;62916;50.044;15.938;2022-12-07T04:57:07;3.60;;;2.00;;
74465;SDS011;62916;50.044;15.938;2022-12-07T04:59:38;2.20;;;1.80;;
74465;SDS011;62916;50.044;15.938;2022-12-07T05:02:12;4.40;;;2.10;;
74465;SDS011;62916;50.044;15.938;2022-12-07T05:04:43;9.30;;;3.00;;
74465;SDS011;62916;50.044;15.938;2022-12-07T05:07:14;17.70;;;3.20;;
74465;SDS011;62916;50.044;15.938;2022-12-07T05:09:44;14.80;;;3.00;;
74465;SDS011;62916;50.044;15.938;2022-12-07T05:12:15;13.60;;;3.00;;
74465;SDS011;62916;50.044;15.938;2022-12-07T05:14:45;15.20;;;3.10;;
74465;SDS011;62916;50.044;15.938;2022-12-07T05:17:16;11.70;;;3.40;;
74465;SDS011;62916;50.044;15.938;2022-12-07T05:19:47;14.30;;;3.10;;
74465;SDS011;62916;50.044;15.938;2022-12-07T05:22:17;19.90;;;3.40;;
74465;SDS011;62916;50.044;15.938;2022-12-07T05:24:49;11.90;;;3.00;;
74465;SDS011;62916;50.044;15.938;2022-12-07T05:27:19;10.00;;;2.80;;
74465;SDS011;62916;50.044;15.938;2022-12-07T05:29:50;11.90;;;3.20;;
74465;SDS011;62916;50.044;15.938;2022-12-07T05:32:21;10.30;;;3.10;;
74465;SDS011;62916;50.044;15.938;2022-12-07T05:34:51;6.70;;;2.30;;
74465;SDS011;62916;50.044;15.938;2022-12-07T05:37:22;8.50;;;3.00;;
74465;SDS011;62916;50.044;15.938;2022-12-07T05:39:53;7.00;;;2.60;;
74465;SDS011;62916;50.044;15.938;2022-12-07T05:42:24;6.20;;;2.50;;
74465;SDS011;62916;50.044;15.938;2022-12-07T05:44:54;9.70;;;2.80;;
74465;SDS011;62916;50.044;15.938;2022-12-07T05:47:25;7.40;;;2.60;;
74465;SDS011;62916;50.044;15.938;2022-12-07T05:49:55;7.10;;;2.30;;
74465;SDS011;62916;50.044;15.938;2022-12-07T05:52:27;9.40;;;2.30;;
74465;SDS011;62916;50.044;15.938;2022-12-07T05:54:57;6.80;;;2.40;;
74465;SDS011;62916;50.044;15.938;2022-12-07T05:57:28;5.20;;;2.10;;
74465;SDS011;62916;50.044;15.938;2022-12-07T05:59:59;5.40;;;2.30;;
74465;SDS011;62916;50.044;15.938;2022-12-07T06:02:30;7.00;;;2.20;;
74465;SDS011;62916;50.044;15.938;2022-12-07T06:05:01;4.80;;;2.80;;
74465;SDS011;62916;50.044;15.938;2022-12-07T06:07:33;4.20;;;2.10;;
74465;SDS011;62916;50.044;15.938;2022-12-07T06:10:04;5.20;;;2.50;;
74465;SDS011;62916;50.044;15.938;2022-12-07T06:12:36;5.90;;;2.20;;
74465;SDS011;62916;50.044;15.938;2022-12-07T06:15:10;7.00;;;2.10;;
74465;SDS011;62916;50.044;15.938;2022-12-07T06:17:41;4.20;;;2.20;;
74465;SDS011;62916;50.044;15.938;2022-12-07T06:20:12;5.50;;;2.70;;
74465;SDS011;62916;50.044;15.938;2022-12-07T06:22:43;4.40;;;2.00;;
74465;SDS011;62916;50.044;15.938;2022-12-07T06:25:14;4.60;;;2.10;;
74465;SDS011;62916;50.044;15.938;2022-12-07T06:27:44;5.20;;;2.30;;
74465;SDS011;62916;50.044;15.938;2022-12-07T06:30:16;5.20;;;2.00;;
74465;SDS011;62916;50.044;15.938;2022-12-07T06:32:47;3.30;;;2.00;;
74465;SDS011;62916;50.044;15.938;2022-12-07T06:35:17;4.20;;;2.00;;
74465;SDS011;62916;50.044;15.938;2022-12-07T06:37:48;4.10;;;2.20;;
74465;SDS011;62916;50.044;15.938;2022-12-07T06:40:19;5.50;;;2.00;;
74465;SDS011;62916;50.044;15.938;2022-12-07T06:42:50;3.50;;;1.60;;
74465;SDS011;62916;50.044;15.938;2022-12-07T06:45:21;4.90;;;2.30;;
74465;SDS011;62916;50.044;15.938;2022-12-07T06:47:52;3.40;;;2.20;;
74465;SDS011;62916;50.044;15.938;2022-12-07T06:50:22;3.60;;;2.30;;
74465;SDS011;62916;50.044;15.938;2022-12-07T06:52:53;3.90;;;2.00;;
74465;SDS011;62916;50.044;15.938;2022-12-07T06:55:24;3.20;;;2.50;;
74465;SDS011;62916;50.044;15.938;2022-12-07T06:57:55;3.60;;;1.80;;
74465;SDS011;62916;50.044;15.938;2022-12-07T07:00:25;3.00;;;1.70;;
74465;SDS011;62916;50.044;15.938;2022-12-07T07:02:56;4.10;;;1.80;;
74465;SDS011;62916;50.044;15.938;2022-12-07T07:05:27;4.60;;;1.70;;
74465;SDS011;62916;50.044;15.938;2022-12-07T07:07:57;4.00;;;1.60;;
74465;SDS011;62916;50.044;15.938;2022-12-07T07:10:48;2.60;;;1.80;;
74465;SDS011;62916;50.044;15.938;2022-12-07T07:13:19;4.20;;;1.70;;
74465;SDS011;62916;50.044;15.938;2022-12-07T07:15:50;3.30;;;2.10;;
74465;SDS011;62916;50.044;15.938;2022-12-07T07:18:20;2.80;;;1.60;;
74465;SDS011;62916;50.044;15.938;2022-12-07T07:20:52;2.50;;;1.50;;
74465;SDS011;62916;50.044;15.938;2022-12-07T07:23:23;1.90;;;1.60;;
74465;SDS011;62916;50.044;15.938;2022-12-07T07:25:54;3.90;;;1.90;;
74465;SDS011;62916;50.044;15.938;2022-12-07T07:28:25;4.10;;;1.80;;
74465;SDS011;62916;50.044;15.938;2022-12-07T07:30:56;4.50;;;1.90;;
74465;SDS011;62916;50.044;15.938;2022-12-07T07:33:26;2.50;;;1.80;;
74465;SDS011;62916;50.044;15.938;2022-12-07T07:35:57;2.90;;;1.80;;
74465;SDS011;62916;50.044;15.938;2022-12-07T07:38:28;2.80;;;1.60;;
74465;SDS011;62916;50.044;15.938;2022-12-07T07:40:58;3.40;;;1.60;;
74465;SDS011;62916;50.044;15.938;2022-12-07T07:43:29;4.30;;;1.70;;
74465;SDS011;62916;50.044;15.938;2022-12-07T07:46:01;4.40;;;2.00;;
74465;SDS011;62916;50.044;15.938;2022-12-07T07:48:31;2.70;;;1.70;;
74465;SDS011;62916;50.044;15.938;2022-12-07T07:51:06;3.10;;;1.60;;
74465;SDS011;62916;50.044;15.938;2022-12-07T07:53:36;1.70;;;1.50;;
74465;SDS011;62916;50.044;15.938;2022-12-07T07:56:07;2.70;;;1.70;;
74465;SDS011;62916;50.044;15.938;2022-12-07T07:58:38;2.90;;;1.40;;
74465;SDS011;62916;50.044;15.938;2022-12-07T08:01:09;3.60;;;1.60;;
74465;SDS011;62916;50.044;15.938;2022-12-07T08:03:41;1.80;;;1.50;;
74465;SDS011;62916;50.044;15.938;2022-12-07T08:06:12;2.60;;;1.50;;
74465;SDS011;62916;50.044;15.938;2022-12-07T08:08:43;1.70;;;1.30;;
74465;SDS011;62916;50.044;15.938;2022-12-07T08:11:13;2.10;;;1.60;;
74465;SDS011;62916;50.044;15.938;2022-12-07T08:13:46;1.80;;;1.60;;
74465;SDS011;62916;50.044;15.938;2022-12-07T08:16:17;2.10;;;1.40;;
74465;SDS011;62916;50.044;15.938;2022-12-07T08:18:48;3.20;;;2.00;;
74465;SDS011;62916;50.044;15.938;2022-12-07T08:21:18;2.20;;;1.60;;
74465;SDS011;62916;50.044;15.938;2022-12-07T08:23:49;1.70;;;1.40;;
74465;SDS011;62916;50.044;15.938;2022-12-07T08:26:20;1.80;;;1.20;;
74465;SDS011;62916;50.044;15.938;2022-12-07T08:28:52;2.30;;;1.50;;
74465;SDS011;62916;50.044;15.938;2022-12-07T08:31:22;2.30;;;1.50;;
74465;SDS011;62916;50.044;15.938;2022-12-07T08:33:55;2.00;;;1.70;;
74465;SDS011;62916;50.044;15.938;2022-12-07T08:36:26;1.80;;;1.50;;
74465;SDS011;62916;50.044;15.938;2022-12-07T08:38:57;1.50;;;1.40;;
74465;SDS011;62916;50.044;15.938;2022-12-07T08:41:47;1.40;;;1.20;;
74465;SDS011;62916;50.044;15.938;2022-12-07T08:44:18;1.80;;;1.40;;
74465;SDS011;62916;50.044;15.938;2022-12-07T08:46:49;2.20;;;1.40;;
74465;SDS011;62916;50.044;15.938;2022-12-07T08:49:26;2.90;;;1.70;;
74465;SDS011;62916;50.044;15.938;2022-12-07T08:52:02;2.00;;;1.30;;
74465;SDS011;62916;50.044;15.938;2022-12-07T08:54:35;1.90;;;1.50;;
74465;SDS011;62916;50.044;15.938;2022-12-07T08:57:07;1.60;;;1.40;;
74465;SDS011;62916;50.044;15.938;2022-12-07T08:59:39;1.50;;;1.10;;
74465;SDS011;62916;50.044;15.938;2022-12-07T09:02:10;1.40;;;1.30;;
74465;SDS011;62916;50.044;15.938;2022-12-07T09:04:40;2.00;;;1.50;;
74465;SDS011;62916;50.044;15.938;2022-12-07T09:07:11;2.60;;;1.60;;
74465;SDS011;62916;50.044;15.938;2022-12-07T09:09:42;2.40;;;1.30;;
74465;SDS011;62916;50.044;15.938;2022-12-07T09:12:13;2.70;;;1.40;;
74465;SDS011;62916;50.044;15.938;2022-12-07T09:14:44;2.10;;;1.60;;
74465;SDS011;62916;50.044;15.938;2022-12-07T09:17:14;1.90;;;1.50;;
74465;SDS011;62916;50.044;15.938;2022-12-07T09:19:45;2.20;;;1.00;;
74465;SDS011;62916;50.044;15.938;2022-12-07T09:22:15;1.30;;;1.20;;
74465;SDS011;62916;50.044;15.938;2022-12-07T09:24:46;1.40;;;1.30;;
74465;SDS011;62916;50.044;15.938;2022-12-07T09:27:17;2.50;;;1.60;;
74465;SDS011;62916;50.044;15.938;2022-12-07T09:29:48;2.00;;;1.20;;
74465;SDS011;62916;50.044;15.938;2022-12-07T09:32:18;1.90;;;1.20;;
74465;SDS011;62916;50.044;15.938;2022-12-07T09:34:49;1.70;;;1.10;;
74465;SDS011;62916;50.044;15.938;2022-12-07T09:37:20;2.40;;;1.40;;
74465;SDS011;62916;50.044;15.938;2022-12-07T09:39:51;2.00;;;1.30;;
74465;SDS011;62916;50.044;15.938;2022-12-07T09:42:26;1.40;;;1.30;;
74465;SDS011;62916;50.044;15.938;2022-12-07T09:45:01;1.70;;;1.30;;
74465;SDS011;62916;50.044;15.938;2022-12-07T09:47:36;1.90;;;1.10;;
74465;SDS011;62916;50.044;15.938;2022-12-07T09:50:11;1.20;;;1.00;;
74465;SDS011;62916;50.044;15.938;2022-12-07T09:52:44;1.30;;;1.20;;
74465;SDS011;62916;50.044;15.938;2022-12-07T09:55:16;1.30;;;1.20;;
74465;SDS011;62916;50.044;15.938;2022-12-07T09:57:56;1.20;;;1.00;;
74465;SDS011;62916;50.044;15.938;2022-12-07T10:00:29;1.80;;;1.20;;
74465;SDS011;62916;50.044;15.938;2022-12-07T10:03:01;1.80;;;1.70;;
74465;SDS011;62916;50.044;15.938;2022-12-07T10:05:34;1.50;;;1.10;;
74465;SDS011;62916;50.044;15.938;2022-12-07T10:08:08;1.20;;;1.10;;
74465;SDS011;62916;50.044;15.938;2022-12-07T10:10:41;1.20;;;1.10;;
74465;SDS011;62916;50.044;15.938;2022-12-07T10:13:13;1.80;;;1.70;;
74465;SDS011;62916;50.044;15.938;2022-12-07T10:15:49;1.90;;;1.10;;
74465;SDS011;62916;50.044;15.938;2022-12-07T10:18:25;1.20;;;1.10;;
74465;SDS011;62916;50.044;15.938;2022-12-07T10:21:09;1.70;;;1.60;;
74465;SDS011;62916;50.044;15.938;2022-12-07T10:23:58;1.80;;;1.30;;
74465;SDS011;62916;50.044;15.938;2022-12-07T10:26:32;1.70;;;1.40;;
74465;SDS011;62916;50.044;15.938;2022-12-07T10:29:12;1.20;;;1.10;;
74465;SDS011;62916;50.044;15.938;2022-12-07T10:31:46;2.20;;;1.10;;
74465;SDS011;62916;50.044;15.938;2022-12-07T10:34:24;1.70;;;1.60;;
74465;SDS011;62916;50.044;15.938;2022-12-07T10:37:15;1.20;;;1.10;;
74465;SDS011;62916;50.044;15.938;2022-12-07T10:39:48;1.50;;;1.20;;
74465;SDS011;62916;50.044;15.938;2022-12-07T10:42:21;1.20;;;1.10;;
74465;SDS011;62916;50.044;15.938;2022-12-07T10:45:06;1.40;;;1.00;;
74465;SDS011;62916;50.044;15.938;2022-12-07T10:47:44;1.50;;;1.00;;
74465;SDS011;62916;50.044;15.938;2022-12-07T10:50:22;1.20;;;1.10;;
74465;SDS011;62916;50.044;15.938;2022-12-07T10:56:20;1.80;;;1.20;;
74465;SDS011;62916;50.044;15.938;2022-12-07T10:59:07;1.50;;;1.00;;
74465;SDS011;62916;50.044;15.938;2022-12-07T11:01:50;1.20;;;1.00;;
74465;SDS011;62916;50.044;15.938;2022-12-07T11:04:29;1.40;;;0.90;;
74465;SDS011;62916;50.044;15.938;2022-12-07T11:07:08;1.10;;;1.00;;
74465;SDS011;62916;50.044;15.938;2022-12-07T11:09:55;1.80;;;1.20;;
74465;SDS011;62916;50.044;15.938;2022-12-07T11:12:47;2.10;;;1.10;;
74465;SDS011;62916;50.044;15.938;2022-12-07T11:15:28;1.60;;;1.20;;
74465;SDS011;62916;50.044;15.938;2022-12-07T11:18:13;1.50;;;1.30;;
74465;SDS011;62916;50.044;15.938;2022-12-07T11:20:53;1.10;;;1.00;;
74465;SDS011;62916;50.044;15.938;2022-12-07T11:23:38;1.20;;;1.00;;
74465;SDS011;62916;50.044;15.938;2022-12-07T11:26:17;1.10;;;1.00;;
74465;SDS011;62916;50.044;15.938;2022-12-07T11:29:02;1.60;;;1.10;;
74465;SDS011;62916;50.044;15.938;2022-12-07T11:31:50;1.20;;;1.00;;
74465;SDS011;62916;50.044;15.938;2022-12-07T11:34:29;1.90;;;1.30;;
74465;SDS011;62916;50.044;15.938;2022-12-07T11:37:09;1.30;;;1.20;;
74465;SDS011;62916;50.044;15.938;2022-12-07T11:39:46;1.10;;;1.00;;
74465;SDS011;62916;50.044;15.938;2022-12-07T11:42:20;1.20;;;0.90;;
74465;SDS011;62916;50.044;15.938;2022-12-07T11:47:27;1.20;;;1.10;;
74465;SDS011;62916;50.044;15.938;2022-12-07T11:50:05;0.90;;;0.90;;
74465;SDS011;62916;50.044;15.938;2022-12-07T11:52:51;1.00;;;0.90;;
74465;SDS011;62916;50.044;15.938;2022-12-07T11:55:32;1.50;;;1.20;;
74465;SDS011;62916;50.044;15.938;2022-12-07T11:58:18;1.30;;;0.80;;
74465;SDS011;62916;50.044;15.938;2022-12-07T12:01:05;1.20;;;1.00;;
74465;SDS011;62916;50.044;15.938;2022-12-07T12:03:44;2.30;;;1.80;;
74465;SDS011;62916;50.044;15.938;2022-12-07T12:06:20;1.20;;;1.10;;
74465;SDS011;62916;50.044;15.938;2022-12-07T12:08:53;2.70;;;1.10;;
74465;SDS011;62916;50.044;15.938;2022-12-07T12:11:55;2.40;;;1.90;;
74465;SDS011;62916;50.044;15.938;2022-12-07T12:14:59;1.50;;;1.40;;
74465;SDS011;62916;50.044;15.938;2022-12-07T12:17:49;2.50;;;1.10;;
74465;SDS011;62916;50.044;15.938;2022-12-07T12:20:37;1.10;;;1.00;;
74465;SDS011;62916;50.044;15.938;2022-12-07T12:23:14;1.90;;;1.00;;
74465;SDS011;62916;50.044;15.938;2022-12-07T12:25:48;2.80;;;1.10;;
74465;SDS011;62916;50.044;15.938;2022-12-07T12:28:26;1.60;;;1.50;;
74465;SDS011;62916;50.044;15.938;2022-12-07T12:31:05;1.70;;;1.30;;
74465;SDS011;62916;50.044;15.938;2022-12-07T12:33:41;1.80;;;1.50;;
74465;SDS011;62916;50.044;15.938;2022-12-07T12:36:19;2.00;;;1.30;;
74465;SDS011;62916;50.044;15.938;2022-12-07T12:39:07;1.70;;;1.40;;
74465;SDS011;62916;50.044;15.938;2022-12-07T12:51:04;2.00;;;1.60;;
74465;SDS011;62916;50.044;15.938;2022-12-07T12:54:10;2.60;;;1.80;;
74465;SDS011;62916;50.044;15.938;2022-12-07T12:56:48;2.40;;;1.80;;
74465;SDS011;62916;50.044;15.938;2022-12-07T12:59:27;1.80;;;1.60;;
74465;SDS011;62916;50.044;15.938;2022-12-07T13:04:52;1.60;;;1.40;;
74465;SDS011;62916;50.044;15.938;2022-12-07T13:10:29;2.10;;;1.70;;
74465;SDS011;62916;50.044;15.938;2022-12-07T13:13:25;2.70;;;1.70;;
74465;SDS011;62916;50.044;15.938;2022-12-07T13:25:09;2.10;;;1.70;;
74465;SDS011;62916;50.044;15.938;2022-12-07T13:27:48;1.60;;;1.40;;
74465;SDS011;62916;50.044;15.938;2022-12-07T13:30:24;1.70;;;1.50;;
74465;SDS011;62916;50.044;15.938;2022-12-07T13:32:57;2.70;;;2.00;;
74465;SDS011;62916;50.044;15.938;2022-12-07T13:35:31;2.40;;;1.70;;
74465;SDS011;62916;50.044;15.938;2022-12-07T13:38:05;2.40;;;1.60;;
74465;SDS011;62916;50.044;15.938;2022-12-07T13:43:44;2.40;;;1.70;;
74465;SDS011;62916;50.044;15.938;2022-12-07T13:46:20;2.80;;;1.80;;
74465;SDS011;62916;50.044;15.938;2022-12-07T13:48:57;1.70;;;1.60;;
74465;SDS011;62916;50.044;15.938;2022-12-07T13:51:28;2.30;;;1.60;;
74465;SDS011;62916;50.044;15.938;2022-12-07T13:54:08;1.70;;;1.40;;
74465;SDS011;62916;50.044;15.938;2022-12-07T13:56:41;2.20;;;1.60;;
74465;SDS011;62916;50.044;15.938;2022-12-07T13:59:17;2.00;;;1.70;;
74465;SDS011;62916;50.044;15.938;2022-12-07T14:01:50;2.50;;;1.60;;
74465;SDS011;62916;50.044;15.938;2022-12-07T14:04:32;2.00;;;1.70;;
74465;SDS011;62916;50.044;15.938;2022-12-07T14:10:03;1.80;;;1.60;;
74465;SDS011;62916;50.044;15.938;2022-12-07T14:12:36;2.10;;;1.30;;
74465;SDS011;62916;50.044;15.938;2022-12-07T14:15:19;2.70;;;1.70;;
74465;SDS011;62916;50.044;15.938;2022-12-07T14:17:53;1.80;;;1.70;;
74465;SDS011;62916;50.044;15.938;2022-12-07T14:20:31;2.60;;;1.70;;
74465;SDS011;62916;50.044;15.938;2022-12-07T14:23:04;1.70;;;1.50;;
74465;SDS011;62916;50.044;15.938;2022-12-07T14:25:52;4.10;;;1.90;;
74465;SDS011;62916;50.044;15.938;2022-12-07T14:28:34;2.00;;;1.40;;
74465;SDS011;62916;50.044;15.938;2022-12-07T14:31:10;2.20;;;1.40;;
74465;SDS011;62916;50.044;15.938;2022-12-07T14:33:52;1.70;;;1.40;;
74465;SDS011;62916;50.044;15.938;2022-12-07T14:36:27;3.00;;;1.90;;
74465;SDS011;62916;50.044;15.938;2022-12-07T14:38:58;1.80;;;1.50;;
74465;SDS011;62916;50.044;15.938;2022-12-07T14:41:29;1.50;;;1.40;;
74465;SDS011;62916;50.044;15.938;2022-12-07T14:44:17;2.70;;;1.80;;
74465;SDS011;62916;50.044;15.938;2022-12-07T14:46:53;1.80;;;1.50;;
74465;SDS011;62916;50.044;15.938;2022-12-07T14:49:44;1.90;;;1.30;;
74465;SDS011;62916;50.044;15.938;2022-12-07T14:52:16;2.00;;;1.80;;
74465;SDS011;62916;50.044;15.938;2022-12-07T14:55:14;1.90;;;1.60;;
74465;SDS011;62916;50.044;15.938;2022-12-07T14:57:49;2.00;;;1.80;;
74465;SDS011;62916;50.044;15.938;2022-12-07T15:00:21;1.90;;;1.60;;
74465;SDS011;62916;50.044;15.938;2022-12-07T15:02:53;2.10;;;1.50;;
74465;SDS011;62916;50.044;15.938;2022-12-07T15:05:25;1.80;;;1.70;;
74465;SDS011;62916;50.044;15.938;2022-12-07T15:07:56;2.00;;;1.40;;
74465;SDS011;62916;50.044;15.938;2022-12-07T15:10:28;2.10;;;1.40;;
74465;SDS011;62916;50.044;15.938;2022-12-07T15:13:02;3.10;;;1.70;;
74465;SDS011;62916;50.044;15.938;2022-12-07T15:18:17;2.40;;;1.50;;
74465;SDS011;62916;50.044;15.938;2022-12-07T15:20:49;2.20;;;1.60;;
74465;SDS011;62916;50.044;15.938;2022-12-07T15:23:20;2.20;;;1.40;;
74465;SDS011;62916;50.044;15.938;2022-12-07T15:25:51;2.00;;;1.50;;
74465;SDS011;62916;50.044;15.938;2022-12-07T15:28:22;1.90;;;1.60;;
74465;SDS011;62916;50.044;15.938;2022-12-07T15:30:53;2.10;;;1.60;;
74465;SDS011;62916;50.044;15.938;2022-12-07T15:33:24;1.60;;;1.40;;
74465;SDS011;62916;50.044;15.938;2022-12-07T15:35:55;2.10;;;1.50;;
74465;SDS011;62916;50.044;15.938;2022-12-07T15:38:27;2.20;;;1.60;;
74465;SDS011;62916;50.044;15.938;2022-12-07T15:41:18;1.70;;;1.60;;
74465;SDS011;62916;50.044;15.938;2022-12-07T15:43:49;1.60;;;1.50;;
74465;SDS011;62916;50.044;15.938;2022-12-07T15:46:40;2.00;;;1.30;;
74465;SDS011;62916;50.044;15.938;2022-12-07T15:49:12;2.50;;;1.70;;
74465;SDS011;62916;50.044;15.938;2022-12-07T15:51:44;2.40;;;1.70;;
74465;SDS011;62916;50.044;15.938;2022-12-07T15:54:18;2.30;;;1.50;;
74465;SDS011;62916;50.044;15.938;2022-12-07T15:56:50;2.20;;;1.20;;
74465;SDS011;62916;50.044;15.938;2022-12-07T15:59:21;2.30;;;1.40;;
74465;SDS011;62916;50.044;15.938;2022-12-07T16:01:52;1.40;;;1.20;;